createdAt,value
2022-09-12T00:01:08.098Z,18.70
2022-09-12T00:04:02.147Z,18.70
2022-09-12T00:09:39.463Z,18.60
2022-09-12T00:12:31.063Z,18.60
2022-09-12T00:15:22.841Z,18.60
2022-09-12T00:18:17.122Z,18.50
2022-09-12T00:21:09.007Z,18.50
2022-09-12T00:26:41.558Z,18.40
2022-09-12T00:29:32.718Z,18.30
2022-09-12T00:32:27.501Z,18.30
2022-09-12T00:35:20.889Z,18.30
2022-09-12T00:38:12.339Z,18.20
2022-09-12T00:41:03.684Z,18.20
2022-09-12T00:43:56.925Z,18.10
2022-09-12T00:46:50.583Z,18.20
2022-09-12T00:49:44.768Z,18.10
2022-09-12T00:52:39.206Z,18.10
2022-09-12T00:55:33.636Z,18.10
2022-09-12T00:58:28.500Z,18.20
2022-09-12T01:01:19.746Z,18.10
2022-09-12T01:06:56.569Z,18.10
2022-09-12T01:09:48.962Z,18.10
2022-09-12T01:12:42.602Z,18.10
2022-09-12T01:15:33.908Z,18.10
2022-09-12T01:21:14.985Z,18.10
2022-09-12T01:24:21.364Z,18.00
2022-09-12T01:27:22.773Z,18.10
2022-09-12T01:30:26.282Z,18.10
2022-09-12T01:36:22.405Z,18.00
2022-09-12T01:44:48.709Z,17.90
2022-09-12T01:50:23.147Z,17.90
2022-09-12T01:53:19.213Z,17.90
2022-09-12T01:56:14.561Z,17.90
2022-09-12T01:59:09.192Z,17.90
2022-09-12T02:04:47.672Z,17.80
2022-09-12T02:07:42.561Z,17.90
2022-09-12T02:13:18.722Z,17.90
2022-09-12T02:16:12.460Z,17.80
2022-09-12T02:21:46.226Z,17.70
2022-09-12T02:24:40.377Z,17.70
2022-09-12T02:27:34.779Z,17.60
2022-09-12T02:30:26.052Z,17.60
2022-09-12T02:35:59.737Z,17.50
2022-09-12T02:38:51.682Z,17.50
2022-09-12T02:41:42.845Z,17.40
2022-09-12T02:44:36.556Z,17.40
2022-09-12T02:50:11.921Z,17.30
2022-09-12T02:53:05.067Z,17.20
2022-09-12T02:55:57.436Z,17.10
2022-09-12T02:58:49.929Z,17.00
2022-09-12T03:01:56.400Z,17.00
2022-09-12T03:05:00.900Z,17.10
2022-09-12T03:08:18.313Z,17.00
2022-09-12T03:11:44.703Z,17.10
2022-09-12T03:15:01.849Z,17.10
2022-09-12T03:20:46.974Z,17.10
2022-09-12T03:23:41.074Z,17.10
2022-09-12T03:29:20.508Z,17.00
2022-09-12T03:32:11.643Z,17.00
2022-09-12T03:35:02.564Z,16.90
2022-09-12T03:37:54.383Z,16.90
2022-09-12T03:40:48.539Z,16.90
2022-09-12T03:43:39.495Z,16.90
2022-09-12T03:46:30.858Z,16.80
2022-09-12T03:49:21.905Z,16.80
2022-09-12T03:52:13.404Z,16.80
2022-09-12T03:55:04.776Z,16.70
2022-09-12T03:57:56.751Z,16.60
2022-09-12T04:00:48.258Z,16.60
2022-09-12T04:03:41.016Z,16.50
2022-09-12T04:06:32.667Z,16.50
2022-09-12T04:09:24.420Z,16.50
2022-09-12T04:12:15.620Z,16.60
2022-09-12T04:15:08.431Z,16.50
2022-09-12T04:20:44.486Z,16.50
2022-09-12T04:23:35.901Z,16.60
2022-09-12T04:26:28.707Z,16.60
2022-09-12T04:31:59.118Z,16.50
2022-09-12T04:34:49.962Z,16.50
2022-09-12T04:37:41.351Z,16.40
2022-09-12T04:40:33.598Z,16.40
2022-09-12T04:43:25.054Z,16.40
2022-09-12T04:46:20.115Z,16.30
2022-09-12T04:49:12.205Z,16.30
2022-09-12T04:54:43.040Z,16.30
2022-09-12T05:00:15.111Z,16.30
2022-09-12T05:05:55.818Z,16.30
2022-09-12T05:08:45.439Z,16.50
2022-09-12T05:12:03.385Z,16.60
2022-09-12T05:14:33.622Z,16.50
2022-09-12T05:17:24.963Z,16.40
2022-09-12T05:20:17.591Z,16.40
2022-09-12T05:25:52.680Z,16.20
2022-09-12T05:28:44.751Z,16.20
2022-09-12T05:31:38.241Z,16.30
2022-09-12T05:34:29.962Z,16.30
2022-09-12T05:40:03.226Z,16.30
2022-09-12T05:42:54.189Z,16.30
2022-09-12T05:45:45.720Z,16.30
2022-09-12T05:48:37.770Z,16.40
2022-09-12T05:51:30.352Z,16.40
2022-09-12T05:54:23.107Z,16.30
2022-09-12T05:57:14.584Z,16.40
2022-09-12T06:00:09.931Z,16.40
2022-09-12T06:05:41.849Z,16.60
2022-09-12T06:08:34.198Z,16.50
2022-09-12T06:11:28.567Z,16.60
2022-09-12T06:14:20.756Z,16.60
2022-09-12T06:17:12.457Z,16.70
2022-09-12T06:22:43.434Z,16.80
2022-09-12T06:25:34.313Z,16.80
2022-09-12T06:31:08.584Z,17.00
2022-09-12T06:34:02.432Z,17.10
2022-09-12T06:36:53.841Z,17.20
2022-09-12T06:39:45.069Z,17.20
2022-09-12T06:42:36.493Z,17.20
2022-09-12T06:45:28.491Z,17.30
2022-09-12T06:48:20.483Z,17.30
2022-09-12T06:54:01.265Z,17.20
2022-09-12T06:57:04.490Z,17.20
2022-09-12T07:00:04.677Z,17.20
2022-09-12T07:02:57.752Z,17.30
2022-09-12T07:05:49.559Z,17.40
2022-09-12T07:11:21.176Z,17.50
2022-09-12T07:14:14.232Z,17.50
2022-09-12T07:17:05.987Z,17.60
2022-09-12T07:19:57.479Z,17.60
2022-09-12T07:22:49.403Z,17.70
2022-09-12T07:25:41.525Z,17.80
2022-09-12T07:28:35.613Z,17.90
2022-09-12T07:31:31.537Z,18.00
2022-09-12T07:34:23.086Z,18.00
2022-09-12T07:37:14.577Z,18.10
2022-09-12T07:40:07.939Z,18.10
2022-09-12T07:45:41.893Z,18.30
2022-09-12T07:48:33.025Z,18.40
2022-09-12T07:51:27.603Z,18.40
2022-09-12T07:54:19.147Z,18.50
2022-09-12T07:57:10.446Z,18.60
2022-09-12T08:02:40.786Z,18.80
2022-09-12T08:05:32.073Z,18.90
2022-09-12T08:08:23.079Z,19.00
2022-09-12T08:11:16.652Z,19.00
2022-09-12T08:14:07.823Z,19.10
2022-09-12T08:16:59.183Z,19.10
2022-09-12T08:19:50.839Z,19.20
2022-09-12T08:22:42.551Z,19.30
2022-09-12T08:25:34.998Z,19.40
2022-09-12T08:28:26.664Z,19.50
2022-09-12T08:31:20.365Z,19.60
2022-09-12T08:34:12.534Z,19.60
2022-09-12T08:37:04.190Z,19.70
2022-09-12T08:42:40.497Z,19.90
2022-09-12T08:45:35.507Z,20.10
2022-09-12T08:48:30.156Z,20.10
2022-09-12T08:51:23.525Z,20.10
2022-09-12T08:54:18.976Z,20.20
2022-09-12T08:57:13.251Z,20.30
2022-09-12T09:00:08.155Z,20.40
2022-09-12T09:03:23.137Z,20.50
2022-09-12T09:06:22.188Z,20.50
2022-09-12T09:09:17.388Z,20.60
2022-09-12T09:12:14.877Z,20.70
2022-09-12T09:15:27.184Z,20.80
2022-09-12T09:18:22.991Z,20.90
2022-09-12T09:21:20.110Z,21.00
2022-09-12T09:24:14.464Z,21.10
2022-09-12T09:27:29.861Z,21.10
2022-09-12T09:30:05.693Z,21.20
2022-09-12T09:33:01.218Z,21.20
2022-09-12T09:35:59.695Z,21.30
2022-09-12T09:38:54.176Z,21.30
2022-09-12T09:41:52.126Z,21.40
2022-09-12T09:44:50.912Z,21.50
2022-09-12T09:47:49.839Z,21.60
2022-09-12T09:50:42.360Z,21.80
2022-09-12T09:53:39.374Z,21.90
2022-09-12T09:56:34.501Z,22.00
2022-09-12T09:59:31.428Z,22.10
2022-09-12T10:02:25.024Z,22.20
2022-09-12T10:05:22.448Z,22.30
2022-09-12T10:08:17.816Z,22.30
2022-09-12T10:11:12.675Z,22.40
2022-09-12T10:17:34.583Z,22.60
2022-09-12T10:20:37.458Z,22.90
2022-09-12T10:23:35.217Z,22.90
2022-09-12T10:26:28.076Z,23.00
2022-09-12T10:29:21.777Z,23.00
2022-09-12T10:32:14.084Z,23.10
2022-09-12T10:35:09.522Z,23.10
2022-09-12T10:38:03.505Z,23.20
2022-09-12T10:41:04.359Z,23.20
2022-09-12T10:43:57.946Z,23.20
2022-09-12T10:46:49.357Z,23.30
2022-09-12T10:49:40.690Z,23.40
2022-09-12T10:52:32.186Z,23.50
2022-09-12T10:55:28.405Z,23.50
2022-09-12T11:01:10.573Z,23.60
2022-09-12T11:04:19.478Z,23.60
2022-09-12T11:07:39.942Z,23.70
2022-09-12T11:28:52.777Z,24.10
2022-09-12T11:31:55.962Z,24.20
2022-09-12T11:34:53.847Z,24.20
2022-09-12T11:37:47.274Z,24.30
2022-09-12T11:40:52.082Z,24.40
2022-09-12T11:43:45.840Z,24.50
2022-09-12T11:46:41.969Z,24.70
2022-09-12T11:49:40.826Z,24.80
2022-09-12T11:55:25.712Z,24.90
2022-09-12T11:58:22.143Z,25.10
2022-09-12T12:01:18.577Z,25.20
2022-09-12T12:04:14.327Z,25.30
2022-09-12T12:07:09.515Z,25.40
2022-09-12T12:10:05.237Z,25.50
2022-09-12T12:12:58.968Z,25.60
2022-09-12T12:15:53.193Z,25.70
2022-09-12T12:18:47.534Z,25.70
2022-09-12T12:21:42.495Z,25.80
2022-09-12T12:24:35.402Z,26.00
2022-09-12T12:27:29.377Z,26.10
2022-09-12T12:31:06.792Z,26.20
2022-09-12T12:34:24.151Z,26.40
2022-09-12T12:37:53.637Z,26.50
2022-09-12T12:40:45.195Z,26.70
2022-09-12T12:43:43.344Z,26.80
2022-09-12T12:46:38.253Z,26.90
2022-09-12T12:49:31.203Z,26.90
2022-09-12T12:52:22.868Z,27.00
2022-09-12T12:55:18.287Z,27.10
2022-09-12T13:00:56.479Z,27.20
2022-09-12T13:03:54.389Z,27.40
2022-09-12T13:06:48.210Z,27.50
2022-09-12T13:09:53.174Z,27.70
2022-09-12T13:12:49.250Z,27.70
2022-09-12T13:15:54.935Z,27.90
2022-09-12T13:21:30.138Z,28.20
2022-09-12T13:24:26.138Z,28.40
2022-09-12T13:27:27.004Z,28.50
2022-09-12T13:30:20.651Z,28.50
2022-09-12T13:33:23.326Z,28.60
2022-09-12T13:36:45.047Z,28.60
2022-09-12T13:39:42.521Z,28.60
2022-09-12T13:42:42.877Z,28.60
2022-09-12T13:45:39.354Z,28.60
2022-09-12T13:48:31.025Z,28.70
2022-09-12T13:51:30.307Z,28.80
2022-09-12T13:54:24.565Z,29.00
2022-09-12T13:57:30.910Z,29.20
2022-09-12T14:00:23.175Z,29.40
2022-09-12T14:03:49.762Z,29.70
2022-09-12T14:06:48.431Z,29.70
2022-09-12T14:09:42.010Z,30.10
2022-09-12T14:12:36.167Z,31.10
2022-09-12T14:15:31.834Z,32.40
2022-09-12T14:18:28.797Z,32.70
2022-09-12T14:21:28.888Z,33.30
2022-09-12T14:24:23.699Z,33.50
2022-09-12T14:27:24.214Z,33.70
2022-09-12T14:30:25.034Z,34.00
2022-09-12T14:36:19.809Z,34.70
2022-09-12T14:39:21.939Z,34.60
2022-09-12T14:42:17.341Z,34.60
2022-09-12T14:45:20.784Z,34.70
2022-09-12T14:48:20.314Z,34.70
2022-09-12T14:51:23.167Z,35.10
2022-09-12T14:54:42.150Z,35.20
2022-09-12T14:57:40.257Z,35.30
2022-09-12T15:00:31.870Z,35.60
2022-09-12T15:03:40.041Z,35.30
2022-09-12T15:06:33.214Z,35.20
2022-09-12T15:09:25.010Z,35.40
2022-09-12T15:12:20.569Z,35.30
2022-09-12T15:15:21.456Z,35.50
2022-09-12T15:18:14.010Z,35.90
2022-09-12T15:21:07.865Z,36.30
2022-09-12T15:23:59.449Z,36.80
2022-09-12T15:26:51.361Z,36.70
2022-09-12T15:29:42.267Z,36.60
2022-09-12T15:32:34.544Z,36.60
2022-09-12T15:35:33.959Z,37.20
2022-09-12T15:38:27.137Z,37.50
2022-09-12T15:41:21.957Z,37.20
2022-09-12T15:44:17.350Z,37.40
2022-09-12T15:49:47.841Z,37.60
2022-09-12T15:52:39.482Z,37.80
2022-09-12T15:55:33.659Z,38.10
2022-09-12T15:58:25.566Z,37.40
2022-09-12T16:01:19.759Z,36.90
2022-09-12T16:04:22.453Z,37.70
2022-09-12T16:07:20.347Z,38.30
2022-09-12T16:10:17.690Z,38.50
2022-09-12T16:13:12.890Z,38.50
2022-09-12T16:16:04.837Z,38.20
2022-09-12T16:18:55.992Z,37.50
2022-09-12T16:21:47.746Z,37.20
2022-09-12T16:24:40.570Z,37.60
2022-09-12T16:27:32.295Z,37.50
2022-09-12T16:30:25.442Z,37.30
2022-09-12T16:33:16.696Z,37.20
2022-09-12T16:36:11.394Z,37.10
2022-09-12T16:39:02.686Z,37.00
2022-09-12T16:41:54.091Z,36.20
2022-09-12T16:44:45.766Z,34.80
2022-09-12T16:47:37.112Z,34.00
2022-09-12T16:50:29.707Z,33.60
2022-09-12T16:56:06.402Z,33.10
2022-09-12T17:01:39.609Z,32.20
2022-09-12T17:04:31.440Z,31.40
2022-09-12T17:10:02.123Z,30.40
2022-09-12T17:12:54.161Z,30.00
2022-09-12T17:15:46.722Z,29.80
2022-09-12T17:18:39.884Z,29.70
2022-09-12T17:21:31.395Z,29.30
2022-09-12T17:24:24.390Z,28.90
2022-09-12T17:27:15.966Z,28.90
2022-09-12T17:30:12.714Z,28.70
2022-09-12T17:33:04.616Z,28.40
2022-09-12T17:35:57.057Z,28.20
2022-09-12T17:38:48.896Z,28.10
2022-09-12T17:41:42.046Z,28.00
2022-09-12T17:44:34.730Z,27.90
2022-09-12T17:47:26.115Z,27.70
2022-09-12T17:50:31.339Z,27.50
2022-09-12T17:53:14.120Z,27.40
2022-09-12T17:56:07.055Z,27.30
2022-09-12T17:58:59.801Z,27.10
2022-09-12T18:02:08.869Z,27.00
2022-09-12T18:05:00.593Z,26.70
2022-09-12T18:07:53.762Z,26.50
2022-09-12T18:10:46.658Z,26.20
2022-09-12T18:13:41.425Z,26.00
2022-09-12T18:16:37.655Z,25.80
2022-09-12T18:19:30.408Z,25.70
2022-09-12T18:22:21.929Z,25.60
2022-09-12T18:25:13.665Z,25.50
2022-09-12T18:28:09.246Z,25.40
2022-09-12T18:31:02.623Z,25.30
2022-09-12T18:33:54.363Z,25.30
2022-09-12T18:36:46.818Z,25.10
2022-09-12T18:39:38.894Z,25.10
2022-09-12T18:42:31.622Z,25.00
2022-09-12T18:45:24.260Z,25.00
2022-09-12T18:48:15.995Z,25.00
2022-09-12T18:51:10.812Z,24.90
2022-09-12T18:54:03.820Z,24.80
2022-09-12T18:59:34.696Z,24.60
2022-09-12T19:02:27.420Z,24.40
2022-09-12T19:05:19.242Z,24.30
2022-09-12T19:08:10.937Z,24.30
2022-09-12T19:11:03.460Z,24.30
2022-09-12T19:13:55.419Z,24.30
2022-09-12T19:16:46.971Z,24.30
2022-09-12T19:19:40.619Z,24.20
2022-09-12T19:22:31.778Z,24.20
2022-09-12T19:25:26.875Z,24.10
2022-09-12T19:28:17.987Z,24.00
2022-09-12T19:31:12.628Z,23.90
2022-09-12T19:34:05.534Z,23.80
2022-09-12T19:36:58.166Z,23.80
2022-09-12T19:39:49.213Z,23.70
2022-09-12T19:42:41.971Z,23.60
2022-09-12T19:48:24.584Z,23.60
2022-09-12T19:51:17.786Z,23.60
2022-09-12T19:54:12.240Z,23.50
2022-09-12T19:57:03.764Z,23.50
2022-09-12T19:59:55.670Z,23.50
2022-09-12T20:02:48.794Z,23.50
2022-09-12T20:05:42.753Z,23.50
2022-09-12T20:08:32.828Z,23.50
2022-09-12T20:11:34.166Z,23.50
2022-09-12T20:14:25.502Z,23.40
2022-09-12T20:17:16.818Z,23.30
2022-09-12T20:20:10.693Z,23.40
2022-09-12T20:23:06.951Z,23.30
2022-09-12T20:26:02.628Z,23.30
2022-09-12T20:31:34.789Z,23.10
2022-09-12T20:34:26.057Z,23.10
2022-09-12T20:37:17.457Z,23.00
2022-09-12T20:40:10.320Z,23.00
2022-09-12T20:43:04.236Z,23.10
2022-09-12T20:45:58.837Z,23.00
2022-09-12T20:48:50.283Z,22.90
2022-09-12T20:51:48.556Z,22.80
2022-09-12T20:54:41.043Z,22.80
2022-09-12T20:57:31.994Z,22.70
2022-09-12T21:00:23.303Z,22.70
2022-09-12T21:03:15.625Z,22.70
2022-09-12T21:06:08.582Z,22.70
2022-09-12T21:11:37.767Z,22.60
2022-09-12T21:17:52.781Z,22.50
2022-09-12T21:20:43.811Z,22.50
2022-09-12T21:23:35.625Z,22.50
2022-09-12T21:26:26.930Z,22.50
2022-09-12T21:29:18.471Z,22.50
2022-09-12T21:32:14.018Z,22.50
2022-09-12T21:35:07.750Z,22.40
2022-09-12T21:37:59.820Z,22.30
2022-09-12T21:41:01.326Z,22.20
2022-09-12T21:43:53.955Z,22.20
2022-09-12T21:46:46.947Z,22.10
2022-09-12T21:49:47.690Z,22.10
2022-09-12T21:52:40.700Z,22.10
2022-09-12T21:55:32.158Z,22.00
2022-09-12T21:58:23.708Z,22.00
2022-09-12T22:01:16.445Z,22.00
2022-09-12T22:04:07.756Z,21.90
2022-09-12T22:06:58.997Z,21.90
2022-09-12T22:09:51.250Z,21.80
2022-09-12T22:12:46.234Z,21.80
2022-09-12T22:15:40.457Z,21.70
2022-09-12T22:18:28.066Z,21.70
2022-09-12T22:21:20.907Z,21.70
2022-09-12T22:24:31.151Z,21.60
2022-09-12T22:27:27.873Z,21.70
2022-09-12T22:30:21.160Z,21.70
2022-09-12T22:33:12.617Z,21.60
2022-09-12T22:36:05.609Z,21.70
2022-09-12T22:38:57.528Z,21.70
2022-09-12T22:41:49.248Z,21.60
2022-09-12T22:44:42.060Z,21.60
2022-09-12T22:47:33.236Z,21.60
2022-09-12T22:50:24.717Z,21.50
2022-09-12T22:53:16.243Z,21.40
2022-09-12T22:56:08.115Z,21.30
2022-09-12T22:58:59.866Z,21.20
2022-09-12T23:01:51.391Z,21.10
2022-09-12T23:04:43.297Z,21.00
2022-09-12T23:07:35.476Z,21.00
2022-09-12T23:10:27.340Z,20.90
2022-09-12T23:13:18.920Z,20.90
2022-09-12T23:16:13.265Z,20.90
2022-09-12T23:19:04.785Z,20.90
2022-09-12T23:21:58.752Z,20.90
2022-09-12T23:24:51.316Z,20.90
2022-09-12T23:27:44.315Z,20.80
2022-09-12T23:30:38.796Z,20.90
2022-09-12T23:33:31.435Z,20.90
2022-09-12T23:36:26.039Z,20.90
2022-09-12T23:39:17.915Z,20.90
2022-09-12T23:42:11.523Z,20.90
2022-09-12T23:45:08.628Z,20.90
2022-09-12T23:48:03.360Z,20.90
2022-09-12T23:50:58.409Z,20.80
2022-09-12T23:53:53.130Z,20.70
2022-09-12T23:56:45.313Z,20.60
2022-09-12T23:59:38.613Z,20.60
